Lila — V7HA8 — position and weather

sailwx.info

Track history (hours):
 
Tides and Currents Weather Stations Pressure Air Temp Water Temp Dewpoint Dewpoint Depression Visibility Wind Speed Wind Dir Waves Ship Positions

Lila

Last reported at 2018-Aug-14 23:28 UTC. Time now 2018-Aug-14 23:45 UTC.
Position N 53°30' E 008°31'.

Length 115 m; draft 8 m.

Type: Cargo ship. MMSI: 538005792.

Date/timePositionNaut miles runAvg speedWind from/ knotsBaromVisibWave heightAir tempDewpointWater temp
2018-Aug-14 23:28N 53°30' E 008°31'0 0.0
2018-Aug-14 22:58N 53°30' E 008°31'0 0.0
2018-Aug-14 22:28N 53°30' E 008°31'0 0.0
2018-Aug-14 21:58N 53°30' E 008°31'0 0.0
2018-Aug-14 21:28N 53°30' E 008°31'0 0.0
2018-Aug-14 20:58N 53°30' E 008°31'0 0.0
2018-Aug-14 20:28N 53°30' E 008°31'0 0.0
2018-Aug-14 19:58N 53°30' E 008°31'0 0.0
2018-Aug-14 19:28N 53°30' E 008°31'0 0.0
2018-Aug-14 18:58N 53°30' E 008°31'0 0.0
2018-Aug-14 18:28N 53°30' E 008°31'0 0.0
2018-Aug-14 17:58N 53°30' E 008°31'0 0.0
2018-Aug-14 17:28N 53°30' E 008°31'0 0.0
2018-Aug-14 16:58N 53°30' E 008°31'0 0.0
2018-Aug-14 16:28N 53°30' E 008°31'0 0.0
2018-Aug-14 15:58N 53°30' E 008°31'0 0.0
2018-Aug-14 15:28N 53°30' E 008°31'0 0.0
2018-Aug-14 14:58N 53°30' E 008°31'0 0.0
2018-Aug-14 14:28N 53°30' E 008°31'0 0.0
2018-Aug-14 13:58N 53°30' E 008°31'0 0.0
2018-Aug-14 13:28N 53°30' E 008°31'0 0.0
2018-Aug-14 12:58N 53°30' E 008°31'0 0.0
2018-Aug-14 12:28N 53°30' E 008°31'0 0.0
2018-Aug-14 11:58N 53°30' E 008°31'0 0.0
2018-Aug-14 11:28N 53°30' E 008°31'0 0.0
2018-Aug-14 10:58N 53°30' E 008°31'0 0.0
2018-Aug-14 10:28N 53°30' E 008°31'0 0.0
2018-Aug-14 09:58N 53°30' E 008°31'0 0.0
2018-Aug-14 09:28N 53°30' E 008°31'0 0.0
2018-Aug-14 08:58N 53°30' E 008°31'0 0.0
2018-Aug-14 08:28N 53°30' E 008°31'0 0.0
2018-Aug-14 07:58N 53°30' E 008°31'0 0.0
2018-Aug-14 07:28N 53°30' E 008°31'0 0.0
2018-Aug-14 06:58N 53°30' E 008°31'0 0.0
2018-Aug-14 06:28N 53°30' E 008°31'0 0.0
2018-Aug-14 05:58N 53°30' E 008°31'0 0.0
2018-Aug-14 05:28N 53°30' E 008°31'0 0.0
2018-Aug-14 04:58N 53°30' E 008°31'0 0.0
2018-Aug-14 04:28N 53°30' E 008°31'0 0.0
2018-Aug-14 03:58N 53°30' E 008°31'0 0.0
2018-Aug-14 03:28N 53°30' E 008°31'0 0.0
2018-Aug-14 02:58N 53°30' E 008°31'0 0.0
2018-Aug-14 02:28N 53°30' E 008°31'0 0.0
2018-Aug-14 01:58N 53°30' E 008°31'0 0.0
2018-Aug-14 01:28N 53°30' E 008°31'0 0.0
2018-Aug-14 00:58N 53°30' E 008°31'0 0.0
2018-Aug-14 00:28N 53°30' E 008°31'0 0.0
2018-Aug-13 23:58N 53°30' E 008°31'0 0.0
2018-Aug-13 23:28N 53°30' E 008°31'0 0.0
2018-Aug-13 22:58N 53°30' E 008°31'0 0.0
2018-Aug-13 22:28N 53°30' E 008°31'0 0.0
2018-Aug-13 21:58N 53°30' E 008°31'0 0.0
2018-Aug-13 21:28N 53°30' E 008°31'0 0.0
2018-Aug-13 20:58N 53°30' E 008°31'0 0.0
2018-Aug-13 20:28N 53°30' E 008°31'0 0.0
2018-Aug-13 19:58N 53°30' E 008°31'0 0.0
2018-Aug-13 19:28N 53°30' E 008°31'0 0.0
2018-Aug-13 18:58N 53°30' E 008°31'0 0.0
2018-Aug-13 18:28N 53°30' E 008°31'0 0.0
2018-Aug-13 17:58N 53°30' E 008°31'0 0.0
2018-Aug-13 17:30N 53°30' E 008°31'1 1.8
2018-Aug-13 17:00N 53°31' E 008°32'3 5.1
2018-Aug-13 16:30N 53°33' E 008°33'3 6.8
2018-Aug-13 16:00N 53°36' E 008°30'4 8.5
2018-Aug-13 15:29N 53°39' E 008°24'4 8.3
2018-Aug-13 15:00N 53°42' E 008°20'4 8.5
2018-Aug-13 14:30N 53°44' E 008°14'4 8.8
2018-Aug-13 14:00N 53°47' E 008°09'5 9.5
2018-Aug-13 13:30N 53°50' E 008°03'610.0
2018-Aug-13 12:55N 53°52' E 007°53'3 6.1
2018-Aug-13 12:26N 53°54' E 007°50'0 0.7
2018-Aug-13 11:57N 53°55' E 007°51'0 0.0
2018-Aug-13 11:30N 53°55' E 007°51'0 0.1
2018-Aug-13 11:00N 53°55' E 007°51'0 0.0
2018-Aug-13 10:30N 53°55' E 007°51'0 0.0
2018-Aug-13 10:00N 53°55' E 007°51'0 0.0
2018-Aug-13 09:30N 53°55' E 007°51'0 0.1
2018-Aug-13 08:51N 53°55' E 007°51'0 0.0
2018-Aug-13 08:27N 53°55' E 007°51'0 0.0
2018-Aug-13 08:00N 53°55' E 007°51'0 0.1
2018-Aug-13 07:30N 53°55' E 007°51'0 0.3
2018-Aug-13 07:00N 53°55' E 007°50'0 0.0
2018-Aug-13 06:30N 53°55' E 007°50'0 0.0
2018-Aug-13 06:00N 53°55' E 007°50'0 0.0
2018-Aug-13 05:30N 53°55' E 007°50'0 0.0
2018-Aug-13 05:00N 53°55' E 007°50'0 0.0
2018-Aug-13 04:30N 53°55' E 007°50'0 0.0
2018-Aug-13 04:00N 53°55' E 007°50'0 0.0
2018-Aug-13 03:30N 53°55' E 007°50'0 0.0
2018-Aug-13 02:57N 53°55' E 007°50'0 0.0
2018-Aug-13 02:27N 53°55' E 007°50'0 0.0
2018-Aug-13 02:00N 53°55' E 007°50'0 0.1
2018-Aug-13 01:24N 53°55' E 007°50'0 0.2
2018-Aug-13 01:00N 53°55' E 007°51'0 0.1
2018-Aug-13 00:30N 53°55' E 007°51'0 0.0
2018-Aug-12 23:24N 53°55' E 007°51'0 0.0
2018-Aug-12 22:45N 53°55' E 007°51'0 0.0
2018-Aug-12 22:27N 53°55' E 007°51'0 0.0
2018-Aug-12 21:45N 53°55' E 007°51'0 0.0
2018-Aug-12 21:18N 53°55' E 007°51'0 0.0
2018-Aug-12 20:54N 53°55' E 007°51'0 0.0
2018-Aug-12 20:30N 53°55' E 007°51'0 0.0
2018-Aug-12 20:00N 53°55' E 007°51'0 0.0
2018-Aug-12 19:30N 53°55' E 007°51'0 0.0
2018-Aug-12 18:51N 53°55' E 007°51'0 0.1
2018-Aug-12 18:30N 53°55' E 007°51'0 0.2
2018-Aug-12 17:39N 53°55' E 007°50'0 0.0
2018-Aug-12 17:27N 53°55' E 007°50'0 0.0
2018-Aug-12 15:03N 53°55' E 007°50'0 0.1
2018-Aug-12 13:28N 53°55' E 007°50'0 0.1
2018-Aug-12 12:51N 53°55' E 007°50'0 0.1
2018-Aug-12 11:54N 53°55' E 007°51'0 0.0
2018-Aug-12 07:27N 53°55' E 007°51'0 0.1
2018-Aug-12 06:57N 53°55' E 007°51'0 0.1
2018-Aug-12 06:30N 53°55' E 007°51'0 0.1
2018-Aug-12 06:00N 53°55' E 007°51'0 0.0
2018-Aug-12 05:30N 53°55' E 007°51'0 0.2
2018-Aug-12 04:57N 53°55' E 007°50'0 0.1
2018-Aug-12 04:27N 53°55' E 007°50'0 0.1
2018-Aug-12 04:00N 53°55' E 007°50'0 0.0
2018-Aug-12 03:30N 53°55' E 007°50'0 0.0
2018-Aug-12 03:00N 53°55' E 007°50'0 0.0
2018-Aug-12 02:27N 53°55' E 007°50'0 0.0
2018-Aug-12 02:00N 53°55' E 007°50'0 0.1
2018-Aug-12 01:27N 53°55' E 007°50'0 0.3
2018-Aug-12 01:00N 53°55' E 007°51'0 0.2
2018-Aug-12 00:21N 53°55' E 007°51'0 0.0
2018-Aug-12 00:00N 53°55' E 007°51'0 0.0
2018-Aug-11 23:30N 53°55' E 007°51'0 0.0
2018-Aug-11 23:00N 53°55' E 007°51'0 0.0
2018-Aug-11 22:30N 53°55' E 007°51'0 0.0
2018-Aug-11 21:57N 53°55' E 007°51'0 0.0
2018-Aug-11 21:27N 53°55' E 007°51'0 0.0
2018-Aug-11 21:00N 53°55' E 007°51'0 0.0
2018-Aug-11 20:30N 53°55' E 007°51'0 0.0
2018-Aug-11 20:00N 53°55' E 007°51'0 0.1
2018-Aug-11 19:30N 53°55' E 007°51'0 0.0
2018-Aug-11 18:57N 53°55' E 007°51'0 0.0
2018-Aug-11 18:15N 53°55' E 007°51'0 0.0
2018-Aug-11 18:00N 53°55' E 007°51'0 0.0
2018-Aug-11 17:24N 53°55' E 007°51'0 0.0
2018-Aug-11 16:57N 53°55' E 007°51'0 0.0
2018-Aug-11 16:30N 53°55' E 007°51'0 0.2
2018-Aug-11 15:51N 53°55' E 007°50'0 0.0
2018-Aug-11 11:21N 53°55' E 007°51'0 0.0
2018-Aug-11 10:54N 53°55' E 007°51'0 0.0
2018-Aug-11 10:30N 53°55' E 007°51'0 0.0
2018-Aug-11 09:57N 53°55' E 007°51'0 0.0
2018-Aug-11 09:30N 53°55' E 007°51'0 0.0
2018-Aug-11 09:00N 53°55' E 007°51'0 0.0
2018-Aug-11 08:30N 53°55' E 007°51'0 0.0
2018-Aug-11 07:57N 53°55' E 007°51'0 0.0
2018-Aug-11 07:30N 53°55' E 007°51'0 0.0
2018-Aug-11 06:51N 53°55' E 007°51'0 0.0
2018-Aug-11 06:30N 53°55' E 007°51'0 0.1
2018-Aug-11 06:00N 53°55' E 007°51'0 0.1
2018-Aug-11 05:30N 53°55' E 007°51'0 0.1
2018-Aug-11 05:00N 53°55' E 007°51'0 0.0
2018-Aug-11 04:30N 53°55' E 007°51'0 0.0
2018-Aug-11 04:00N 53°55' E 007°51'0 0.1
2018-Aug-11 03:30N 53°55' E 007°51'0 0.1
2018-Aug-11 02:54N 53°55' E 007°50'0 0.1
2018-Aug-11 02:30N 53°55' E 007°50'0 0.0
2018-Aug-11 01:42N 53°55' E 007°50'0 0.1
2018-Aug-10 22:45N 53°55' E 007°51'0 0.1
2018-Aug-10 22:24N 53°55' E 007°51'0 0.1
2018-Aug-10 22:00N 53°55' E 007°51'0 0.1
2018-Aug-10 21:30N 53°55' E 007°51'0 0.1
2018-Aug-10 21:00N 53°55' E 007°51'0 0.0
2018-Aug-10 20:24N 53°55' E 007°51'0 0.0
2018-Aug-10 19:42N 53°55' E 007°51'0 0.0
2018-Aug-10 19:24N 53°55' E 007°51'0 0.0
2018-Aug-10 18:54N 53°55' E 007°51'0 0.0
2018-Aug-10 17:51N 53°55' E 007°51'0 0.1
2018-Aug-10 17:30N 53°55' E 007°51'0 0.0
2018-Aug-10 16:42N 53°55' E 007°51'0 0.1
2018-Aug-10 16:30N 53°55' E 007°51'0 0.1
2018-Aug-10 15:57N 53°55' E 007°51'0 0.0
2018-Aug-10 14:48N 53°55' E 007°51'0 0.3
2018-Aug-10 14:30N 53°55' E 007°50'0 0.1
2018-Aug-10 14:00N 53°55' E 007°50'0 0.1
2018-Aug-10 11:17N 53°55' E 007°50'1 2.1
2018-Aug-10 10:58N 53°55' E 007°51'1 1.5
2018-Aug-10 10:28N 53°55' E 007°53'0 0.2
2018-Aug-10 09:59N 53°55' E 007°53'0 0.3
2018-Aug-10 09:30N 53°55' E 007°52'0 0.3
2018-Aug-10 08:56N 53°55' E 007°52'0 0.6
2018-Aug-10 08:30N 53°55' E 007°52'0 0.2
2018-Aug-10 08:00N 53°55' E 007°51'0 1.0
2018-Aug-10 07:30N 53°55' E 007°51'1 1.2
2018-Aug-10 06:59N 53°56' E 007°52'2 4.7
2018-Aug-10 06:29N 53°55' E 007°48'1 1.2
2018-Aug-10 05:46N 53°55' E 007°46'1 3.2
2018-Aug-10 05:30N 53°55' E 007°48'0 0.4
2018-Aug-10 04:45N 53°55' E 007°48'0 0.1
2018-Aug-10 03:39N 53°55' E 007°48'0 0.1
2018-Aug-10 03:27N 53°55' E 007°48'0 0.0
2018-Aug-10 02:06N 53°55' E 007°48'0 0.0
2018-Aug-10 01:57N 53°55' E 007°48'0 0.0
2018-Aug-10 01:24N 53°55' E 007°48'0 0.0
2018-Aug-10 00:54N 53°55' E 007°48'0 0.1
2018-Aug-10 00:30N 53°55' E 007°47'0 0.1
2018-Aug-09 23:57N 53°55' E 007°47'0 0.2
2018-Aug-09 23:30N 53°55' E 007°47'0 0.0
2018-Aug-09 22:57N 53°55' E 007°47'0 0.0
2018-Aug-09 22:21N 53°55' E 007°47'0 0.0
2018-Aug-09 21:57N 53°55' E 007°47'0 0.1
2018-Aug-09 21:30N 53°55' E 007°47'0 0.1
2018-Aug-09 20:57N 53°55' E 007°47'0 0.0
2018-Aug-09 20:27N 53°55' E 007°47'0 0.0
2018-Aug-09 19:57N 53°55' E 007°47'0 0.1
2018-Aug-09 19:30N 53°55' E 007°47'0 0.1
2018-Aug-09 16:40N 53°55' E 007°47'0 1.9
2018-Aug-09 16:29N 53°55' E 007°47'4 8.6
2018-Aug-09 16:00N 53°54' E 007°40'5 9.8
2018-Aug-09 15:31N 53°54' E 007°32'5 9.6
2018-Aug-09 15:00N 53°53' E 007°23'64 9.8
2018-Aug-09 08:29N 53°36' E 005°39'710.9
2018-Aug-09 07:50N 53°34' E 005°28'410.9
2018-Aug-09 07:30N 53°33' E 005°22'511.0
2018-Aug-09 07:00N 53°31' E 005°14'611.4
2018-Aug-09 06:30N 53°29' E 005°05'611.6
2018-Aug-09 06:00N 53°27' E 004°55'1611.3
2018-Aug-09 04:35N 53°16' E 004°36'212.4
2018-Aug-09 04:24N 53°14' E 004°34'512.2
2018-Aug-09 04:00N 53°10' E 004°31'612.4
2018-Aug-09 03:30N 53°05' E 004°26'713.0
2018-Aug-09 03:00N 52°59' E 004°20'612.9
2018-Aug-09 02:30N 52°53' E 004°15'612.4
2018-Aug-09 02:00N 52°48' E 004°11'1112.3
2018-Aug-09 01:06N 52°39' E 004°00'212.5
2018-Aug-09 00:57N 52°37' E 003°58'1812.2
2018-Aug-08 23:30N 52°25' E 003°37'612.6
2018-Aug-08 23:00N 52°20' E 003°31'712.5
2018-Aug-08 22:25N 52°15' E 003°22'812.2
2018-Aug-08 21:47N 52°10' E 003°13'612.0
2018-Aug-08 21:19N 52°06' E 003°06'711.6
2018-Aug-08 20:44N 52°01' E 002°59'2310.5
2018-Aug-08 18:29N 51°43' E 002°34'5 9.8
2018-Aug-08 18:00N 51°40' E 002°29'5 9.7
2018-Aug-08 17:30N 51°36' E 002°23'5 9.7
2018-Aug-08 17:00N 51°33' E 002°19'5 9.6
2018-Aug-08 16:30N 51°29' E 002°14'5 9.5
2018-Aug-08 16:00N 51°24' E 002°11'510.1
2018-Aug-08 15:31N 51°19' E 002°09'510.4
2018-Aug-08 15:01N 51°15' E 002°06'510.3
2018-Aug-08 14:31N 51°11' E 001°59'510.5
2018-Aug-08 14:00N 51°09' E 001°52'510.6
2018-Aug-08 13:31N 51°06' E 001°45'510.9
2018-Aug-08 13:00N 51°02' E 001°39'611.3
2018-Aug-08 12:31N 50°58' E 001°32'611.6
2018-Aug-08 12:01N 50°54' E 001°27'611.8
2018-Aug-08 11:31N 50°48' E 001°24'611.7
2018-Aug-08 11:01N 50°42' E 001°21'611.7
2018-Aug-08 10:31N 50°38' E 001°14'1711.3
2018-Aug-08 09:02N 50°29' E 000°53'211.4
2018-Aug-08 08:50N 50°28' E 000°49'3212.0
2018-Aug-08 06:08N 50°19' E 000°01'212.8
2018-Aug-08 06:00N 50°18' W 000°02'713.0
2018-Aug-08 05:28N 50°17' W 000°12'813.2
2018-Aug-08 04:50N 50°15' W 000°25'2713.1
2018-Aug-08 02:46N 50°07' W 001°06'412.5
2018-Aug-08 02:25N 50°06' W 001°12'512.0
2018-Aug-08 01:59N 50°05' W 001°20'611.6
2018-Aug-08 01:28N 50°03' W 001°29'53 9.6
2018-Aug-07 20:01N 49°50' W 002°48'011.8
2018-Aug-07 20:00N 49°50' W 002°48'810.4
2018-Aug-07 19:13N 49°46' W 002°60'310.8
2018-Aug-07 18:55N 49°45' W 003°04'511.1
2018-Aug-07 18:29N 49°42' W 003°11'611.0
2018-Aug-07 17:59N 49°40' W 003°18'6911.5
2018-Aug-07 12:00N 49°05' W 004°50'612.0
2018-Aug-07 11:30N 49°02' W 004°57'712.0
2018-Aug-07 10:56N 48°58' W 005°07'612.1
2018-Aug-07 10:24N 48°55' W 005°15'512.2
2018-Aug-07 09:58N 48°52' W 005°22'512.1
2018-Aug-07 09:30N 48°49' W 005°29'612.3
2018-Aug-07 09:00N 48°45' W 005°36'911.5
2018-Aug-07 08:16N 48°39' W 005°44'411.1
2018-Aug-07 07:57N 48°36' W 005°47'511.0
2018-Aug-07 07:30N 48°31' W 005°50'610.6
2018-Aug-07 06:54N 48°26' W 005°55'410.7
2018-Aug-07 06:30N 48°22' W 005°58'1510.5
2018-Aug-07 05:03N 48°08' W 006°08'010.2
2018-Aug-07 05:00N 48°08' W 006°09'510.3
2018-Aug-07 04:29N 48°03' W 006°12'510.2
2018-Aug-07 03:57N 47°58' W 006°16'910.1
2018-Aug-07 03:06N 47°51' W 006°22'310.0
2018-Aug-07 02:50N 47°48' W 006°24'33910.5
2018-Aug-05 18:40N 42°42' W 009°49'211.5
2018-Aug-05 18:30N 42°40' W 009°49'711.6
2018-Aug-05 17:52N 42°33' W 009°50'411.7
2018-Aug-05 17:30N 42°28' W 009°51'2111.7
2018-Aug-05 15:42N 42°07' W 009°55'9511.0
2018-Aug-05 07:01N 40°36' W 010°31'011.1
2018-Aug-05 07:01N 40°36' W 010°31'610.6
2018-Aug-05 06:24N 40°30' W 010°33'510.9
2018-Aug-05 05:57N 40°25' W 010°35'511.2
2018-Aug-05 05:28N 40°20' W 010°37'710.9
2018-Aug-05 04:52N 40°13' W 010°39'410.7
2018-Aug-05 04:31N 40°10' W 010°41'810.8
2018-Aug-05 03:48N 40°02' W 010°44'311.0
2018-Aug-05 03:30N 39°59' W 010°45'510.7
2018-Aug-05 03:00N 39°54' W 010°47'510.5
2018-Aug-05 02:30N 39°49' W 010°49'510.6
2018-Aug-05 02:00N 39°44' W 010°51'510.5
2018-Aug-05 01:30N 39°39' W 010°54'510.5
2018-Aug-05 01:01N 39°34' W 010°55'510.8
2018-Aug-05 00:31N 39°29' W 010°57'510.9
2018-Aug-05 00:00N 39°24' W 010°59'510.8
2018-Aug-04 23:30N 39°18' W 011°01'  
Track history (hours):
 
Tides and Currents Weather Stations Pressure Air Temp Water Temp Dewpoint Dewpoint Depression Visibility Wind Speed Wind Dir Waves Ship Positions

Lila

Last reported at 2018-Aug-14 23:28 UTC. Time now 2018-Aug-14 23:45 UTC.
Position N 53°30' E 008°31'.

Length 115 m; draft 8 m.

Type: Cargo ship. MMSI: 538005792.

Date/timePositionNaut miles runAvg speedWind from/ knotsBaromVisibWave heightAir tempDewpointWater temp
2018-Aug-14 23:28N 53°30' E 008°31'0 0.0
2018-Aug-14 22:58N 53°30' E 008°31'0 0.0
2018-Aug-14 22:28N 53°30' E 008°31'0 0.0
2018-Aug-14 21:58N 53°30' E 008°31'0 0.0
2018-Aug-14 21:28N 53°30' E 008°31'0 0.0
2018-Aug-14 20:58N 53°30' E 008°31'0 0.0
2018-Aug-14 20:28N 53°30' E 008°31'0 0.0
2018-Aug-14 19:58N 53°30' E 008°31'0 0.0
2018-Aug-14 19:28N 53°30' E 008°31'0 0.0
2018-Aug-14 18:58N 53°30' E 008°31'0 0.0
2018-Aug-14 18:28N 53°30' E 008°31'0 0.0
2018-Aug-14 17:58N 53°30' E 008°31'0 0.0
2018-Aug-14 17:28N 53°30' E 008°31'0 0.0
2018-Aug-14 16:58N 53°30' E 008°31'0 0.0
2018-Aug-14 16:28N 53°30' E 008°31'0 0.0
2018-Aug-14 15:58N 53°30' E 008°31'0 0.0
2018-Aug-14 15:28N 53°30' E 008°31'0 0.0
2018-Aug-14 14:58N 53°30' E 008°31'0 0.0
2018-Aug-14 14:28N 53°30' E 008°31'0 0.0
2018-Aug-14 13:58N 53°30' E 008°31'0 0.0
2018-Aug-14 13:28N 53°30' E 008°31'0 0.0
2018-Aug-14 12:58N 53°30' E 008°31'0 0.0
2018-Aug-14 12:28N 53°30' E 008°31'0 0.0
2018-Aug-14 11:58N 53°30' E 008°31'0 0.0
2018-Aug-14 11:28N 53°30' E 008°31'0 0.0
2018-Aug-14 10:58N 53°30' E 008°31'0 0.0
2018-Aug-14 10:28N 53°30' E 008°31'0 0.0
2018-Aug-14 09:58N 53°30' E 008°31'0 0.0
2018-Aug-14 09:28N 53°30' E 008°31'0 0.0
2018-Aug-14 08:58N 53°30' E 008°31'0 0.0
2018-Aug-14 08:28N 53°30' E 008°31'0 0.0
2018-Aug-14 07:58N 53°30' E 008°31'0 0.0
2018-Aug-14 07:28N 53°30' E 008°31'0 0.0
2018-Aug-14 06:58N 53°30' E 008°31'0 0.0
2018-Aug-14 06:28N 53°30' E 008°31'0 0.0
2018-Aug-14 05:58N 53°30' E 008°31'0 0.0
2018-Aug-14 05:28N 53°30' E 008°31'0 0.0
2018-Aug-14 04:58N 53°30' E 008°31'0 0.0
2018-Aug-14 04:28N 53°30' E 008°31'0 0.0
2018-Aug-14 03:58N 53°30' E 008°31'0 0.0
2018-Aug-14 03:28N 53°30' E 008°31'0 0.0
2018-Aug-14 02:58N 53°30' E 008°31'0 0.0
2018-Aug-14 02:28N 53°30' E 008°31'0 0.0
2018-Aug-14 01:58N 53°30' E 008°31'0 0.0
2018-Aug-14 01:28N 53°30' E 008°31'0 0.0
2018-Aug-14 00:58N 53°30' E 008°31'0 0.0
2018-Aug-14 00:28N 53°30' E 008°31'0 0.0
2018-Aug-13 23:58N 53°30' E 008°31'0 0.0
2018-Aug-13 23:28N 53°30' E 008°31'0 0.0
2018-Aug-13 22:58N 53°30' E 008°31'0 0.0
2018-Aug-13 22:28N 53°30' E 008°31'0 0.0
2018-Aug-13 21:58N 53°30' E 008°31'0 0.0
2018-Aug-13 21:28N 53°30' E 008°31'0 0.0
2018-Aug-13 20:58N 53°30' E 008°31'0 0.0
2018-Aug-13 20:28N 53°30' E 008°31'0 0.0
2018-Aug-13 19:58N 53°30' E 008°31'0 0.0
2018-Aug-13 19:28N 53°30' E 008°31'0 0.0
2018-Aug-13 18:58N 53°30' E 008°31'0 0.0
2018-Aug-13 18:28N 53°30' E 008°31'0 0.0
2018-Aug-13 17:58N 53°30' E 008°31'0 0.0
2018-Aug-13 17:30N 53°30' E 008°31'1 1.8
2018-Aug-13 17:00N 53°31' E 008°32'3 5.1
2018-Aug-13 16:30N 53°33' E 008°33'3 6.8
2018-Aug-13 16:00N 53°36' E 008°30'4 8.5
2018-Aug-13 15:29N 53°39' E 008°24'4 8.3
2018-Aug-13 15:00N 53°42' E 008°20'4 8.5
2018-Aug-13 14:30N 53°44' E 008°14'4 8.8
2018-Aug-13 14:00N 53°47' E 008°09'5 9.5
2018-Aug-13 13:30N 53°50' E 008°03'610.0
2018-Aug-13 12:55N 53°52' E 007°53'3 6.1
2018-Aug-13 12:26N 53°54' E 007°50'0 0.7
2018-Aug-13 11:57N 53°55' E 007°51'0 0.0
2018-Aug-13 11:30N 53°55' E 007°51'0 0.1
2018-Aug-13 11:00N 53°55' E 007°51'0 0.0
2018-Aug-13 10:30N 53°55' E 007°51'0 0.0
2018-Aug-13 10:00N 53°55' E 007°51'0 0.0
2018-Aug-13 09:30N 53°55' E 007°51'0 0.1
2018-Aug-13 08:51N 53°55' E 007°51'0 0.0
2018-Aug-13 08:27N 53°55' E 007°51'0 0.0
2018-Aug-13 08:00N 53°55' E 007°51'0 0.1
2018-Aug-13 07:30N 53°55' E 007°51'0 0.3
2018-Aug-13 07:00N 53°55' E 007°50'0 0.0
2018-Aug-13 06:30N 53°55' E 007°50'0 0.0
2018-Aug-13 06:00N 53°55' E 007°50'0 0.0
2018-Aug-13 05:30N 53°55' E 007°50'0 0.0
2018-Aug-13 05:00N 53°55' E 007°50'0 0.0
2018-Aug-13 04:30N 53°55' E 007°50'0 0.0
2018-Aug-13 04:00N 53°55' E 007°50'0 0.0
2018-Aug-13 03:30N 53°55' E 007°50'0 0.0
2018-Aug-13 02:57N 53°55' E 007°50'0 0.0
2018-Aug-13 02:27N 53°55' E 007°50'0 0.0
2018-Aug-13 02:00N 53°55' E 007°50'0 0.1
2018-Aug-13 01:24N 53°55' E 007°50'0 0.2
2018-Aug-13 01:00N 53°55' E 007°51'0 0.1
2018-Aug-13 00:30N 53°55' E 007°51'0 0.0
2018-Aug-12 23:24N 53°55' E 007°51'0 0.0
2018-Aug-12 22:45N 53°55' E 007°51'0 0.0
2018-Aug-12 22:27N 53°55' E 007°51'0 0.0
2018-Aug-12 21:45N 53°55' E 007°51'0 0.0
2018-Aug-12 21:18N 53°55' E 007°51'0 0.0
2018-Aug-12 20:54N 53°55' E 007°51'0 0.0
2018-Aug-12 20:30N 53°55' E 007°51'0 0.0
2018-Aug-12 20:00N 53°55' E 007°51'0 0.0
2018-Aug-12 19:30N 53°55' E 007°51'0 0.0
2018-Aug-12 18:51N 53°55' E 007°51'0 0.1
2018-Aug-12 18:30N 53°55' E 007°51'0 0.2
2018-Aug-12 17:39N 53°55' E 007°50'0 0.0
2018-Aug-12 17:27N 53°55' E 007°50'0 0.0
2018-Aug-12 15:03N 53°55' E 007°50'0 0.1
2018-Aug-12 13:28N 53°55' E 007°50'0 0.1
2018-Aug-12 12:51N 53°55' E 007°50'0 0.1
2018-Aug-12 11:54N 53°55' E 007°51'0 0.0
2018-Aug-12 07:27N 53°55' E 007°51'0 0.1
2018-Aug-12 06:57N 53°55' E 007°51'0 0.1
2018-Aug-12 06:30N 53°55' E 007°51'0 0.1
2018-Aug-12 06:00N 53°55' E 007°51'0 0.0
2018-Aug-12 05:30N 53°55' E 007°51'0 0.2
2018-Aug-12 04:57N 53°55' E 007°50'0 0.1
2018-Aug-12 04:27N 53°55' E 007°50'0 0.1
2018-Aug-12 04:00N 53°55' E 007°50'0 0.0
2018-Aug-12 03:30N 53°55' E 007°50'0 0.0
2018-Aug-12 03:00N 53°55' E 007°50'0 0.0
2018-Aug-12 02:27N 53°55' E 007°50'0 0.0
2018-Aug-12 02:00N 53°55' E 007°50'0 0.1
2018-Aug-12 01:27N 53°55' E 007°50'0 0.3
2018-Aug-12 01:00N 53°55' E 007°51'0 0.2
2018-Aug-12 00:21N 53°55' E 007°51'0 0.0
2018-Aug-12 00:00N 53°55' E 007°51'0 0.0
2018-Aug-11 23:30N 53°55' E 007°51'0 0.0
2018-Aug-11 23:00N 53°55' E 007°51'0 0.0
2018-Aug-11 22:30N 53°55' E 007°51'0 0.0
2018-Aug-11 21:57N 53°55' E 007°51'0 0.0
2018-Aug-11 21:27N 53°55' E 007°51'0 0.0
2018-Aug-11 21:00N 53°55' E 007°51'0 0.0
2018-Aug-11 20:30N 53°55' E 007°51'0 0.0
2018-Aug-11 20:00N 53°55' E 007°51'0 0.1
2018-Aug-11 19:30N 53°55' E 007°51'0 0.0
2018-Aug-11 18:57N 53°55' E 007°51'0 0.0
2018-Aug-11 18:15N 53°55' E 007°51'0 0.0
2018-Aug-11 18:00N 53°55' E 007°51'0 0.0
2018-Aug-11 17:24N 53°55' E 007°51'0 0.0
2018-Aug-11 16:57N 53°55' E 007°51'0 0.0
2018-Aug-11 16:30N 53°55' E 007°51'0 0.2
2018-Aug-11 15:51N 53°55' E 007°50'0 0.0
2018-Aug-11 11:21N 53°55' E 007°51'0 0.0
2018-Aug-11 10:54N 53°55' E 007°51'0 0.0
2018-Aug-11 10:30N 53°55' E 007°51'0 0.0
2018-Aug-11 09:57N 53°55' E 007°51'0 0.0
2018-Aug-11 09:30N 53°55' E 007°51'0 0.0
2018-Aug-11 09:00N 53°55' E 007°51'0 0.0
2018-Aug-11 08:30N 53°55' E 007°51'0 0.0
2018-Aug-11 07:57N 53°55' E 007°51'0 0.0
2018-Aug-11 07:30N 53°55' E 007°51'0 0.0
2018-Aug-11 06:51N 53°55' E 007°51'0 0.0
2018-Aug-11 06:30N 53°55' E 007°51'0 0.1
2018-Aug-11 06:00N 53°55' E 007°51'0 0.1
2018-Aug-11 05:30N 53°55' E 007°51'0 0.1
2018-Aug-11 05:00N 53°55' E 007°51'0 0.0
2018-Aug-11 04:30N 53°55' E 007°51'0 0.0
2018-Aug-11 04:00N 53°55' E 007°51'0 0.1
2018-Aug-11 03:30N 53°55' E 007°51'0 0.1
2018-Aug-11 02:54N 53°55' E 007°50'0 0.1
2018-Aug-11 02:30N 53°55' E 007°50'0 0.0
2018-Aug-11 01:42N 53°55' E 007°50'0 0.1
2018-Aug-10 22:45N 53°55' E 007°51'0 0.1
2018-Aug-10 22:24N 53°55' E 007°51'0 0.1
2018-Aug-10 22:00N 53°55' E 007°51'0 0.1
2018-Aug-10 21:30N 53°55' E 007°51'0 0.1
2018-Aug-10 21:00N 53°55' E 007°51'0 0.0
2018-Aug-10 20:24N 53°55' E 007°51'0 0.0
2018-Aug-10 19:42N 53°55' E 007°51'0 0.0
2018-Aug-10 19:24N 53°55' E 007°51'0 0.0
2018-Aug-10 18:54N 53°55' E 007°51'0 0.0
2018-Aug-10 17:51N 53°55' E 007°51'0 0.1
2018-Aug-10 17:30N 53°55' E 007°51'0 0.0
2018-Aug-10 16:42N 53°55' E 007°51'0 0.1
2018-Aug-10 16:30N 53°55' E 007°51'0 0.1
2018-Aug-10 15:57N 53°55' E 007°51'0 0.0
2018-Aug-10 14:48N 53°55' E 007°51'0 0.3
2018-Aug-10 14:30N 53°55' E 007°50'0 0.1
2018-Aug-10 14:00N 53°55' E 007°50'0 0.1
2018-Aug-10 11:17N 53°55' E 007°50'1 2.1
2018-Aug-10 10:58N 53°55' E 007°51'1 1.5
2018-Aug-10 10:28N 53°55' E 007°53'0 0.2
2018-Aug-10 09:59N 53°55' E 007°53'0 0.3
2018-Aug-10 09:30N 53°55' E 007°52'0 0.3
2018-Aug-10 08:56N 53°55' E 007°52'0 0.6
2018-Aug-10 08:30N 53°55' E 007°52'0 0.2
2018-Aug-10 08:00N 53°55' E 007°51'0 1.0
2018-Aug-10 07:30N 53°55' E 007°51'1 1.2
2018-Aug-10 06:59N 53°56' E 007°52'2 4.7
2018-Aug-10 06:29N 53°55' E 007°48'1 1.2
2018-Aug-10 05:46N 53°55' E 007°46'1 3.2
2018-Aug-10 05:30N 53°55' E 007°48'0 0.4
2018-Aug-10 04:45N 53°55' E 007°48'0 0.1
2018-Aug-10 03:39N 53°55' E 007°48'0 0.1
2018-Aug-10 03:27N 53°55' E 007°48'0 0.0
2018-Aug-10 02:06N 53°55' E 007°48'0 0.0
2018-Aug-10 01:57N 53°55' E 007°48'0 0.0
2018-Aug-10 01:24N 53°55' E 007°48'0 0.0
2018-Aug-10 00:54N 53°55' E 007°48'0 0.1
2018-Aug-10 00:30N 53°55' E 007°47'0 0.1
2018-Aug-09 23:57N 53°55' E 007°47'0 0.2
2018-Aug-09 23:30N 53°55' E 007°47'0 0.0
2018-Aug-09 22:57N 53°55' E 007°47'0 0.0
2018-Aug-09 22:21N 53°55' E 007°47'0 0.0
2018-Aug-09 21:57N 53°55' E 007°47'0 0.1
2018-Aug-09 21:30N 53°55' E 007°47'0 0.1
2018-Aug-09 20:57N 53°55' E 007°47'0 0.0
2018-Aug-09 20:27N 53°55' E 007°47'0 0.0
2018-Aug-09 19:57N 53°55' E 007°47'0 0.1
2018-Aug-09 19:30N 53°55' E 007°47'0 0.1
2018-Aug-09 16:40N 53°55' E 007°47'0 1.9
2018-Aug-09 16:29N 53°55' E 007°47'4 8.6
2018-Aug-09 16:00N 53°54' E 007°40'5 9.8
2018-Aug-09 15:31N 53°54' E 007°32'5 9.6
2018-Aug-09 15:00N 53°53' E 007°23'64 9.8
2018-Aug-09 08:29N 53°36' E 005°39'710.9
2018-Aug-09 07:50N 53°34' E 005°28'410.9
2018-Aug-09 07:30N 53°33' E 005°22'511.0
2018-Aug-09 07:00N 53°31' E 005°14'611.4
2018-Aug-09 06:30N 53°29' E 005°05'611.6
2018-Aug-09 06:00N 53°27' E 004°55'1611.3
2018-Aug-09 04:35N 53°16' E 004°36'212.4
2018-Aug-09 04:24N 53°14' E 004°34'512.2
2018-Aug-09 04:00N 53°10' E 004°31'612.4
2018-Aug-09 03:30N 53°05' E 004°26'713.0
2018-Aug-09 03:00N 52°59' E 004°20'612.9
2018-Aug-09 02:30N 52°53' E 004°15'612.4
2018-Aug-09 02:00N 52°48' E 004°11'1112.3
2018-Aug-09 01:06N 52°39' E 004°00'212.5
2018-Aug-09 00:57N 52°37' E 003°58'1812.2
2018-Aug-08 23:30N 52°25' E 003°37'612.6
2018-Aug-08 23:00N 52°20' E 003°31'712.5
2018-Aug-08 22:25N 52°15' E 003°22'812.2
2018-Aug-08 21:47N 52°10' E 003°13'612.0
2018-Aug-08 21:19N 52°06' E 003°06'711.6
2018-Aug-08 20:44N 52°01' E 002°59'2310.5
2018-Aug-08 18:29N 51°43' E 002°34'5 9.8
2018-Aug-08 18:00N 51°40' E 002°29'5 9.7
2018-Aug-08 17:30N 51°36' E 002°23'5 9.7
2018-Aug-08 17:00N 51°33' E 002°19'5 9.6
2018-Aug-08 16:30N 51°29' E 002°14'5 9.5
2018-Aug-08 16:00N 51°24' E 002°11'510.1
2018-Aug-08 15:31N 51°19' E 002°09'510.4
2018-Aug-08 15:01N 51°15' E 002°06'510.3
2018-Aug-08 14:31N 51°11' E 001°59'510.5
2018-Aug-08 14:00N 51°09' E 001°52'510.6
2018-Aug-08 13:31N 51°06' E 001°45'510.9
2018-Aug-08 13:00N 51°02' E 001°39'611.3
2018-Aug-08 12:31N 50°58' E 001°32'611.6
2018-Aug-08 12:01N 50°54' E 001°27'611.8
2018-Aug-08 11:31N 50°48' E 001°24'611.7
2018-Aug-08 11:01N 50°42' E 001°21'611.7
2018-Aug-08 10:31N 50°38' E 001°14'1711.3
2018-Aug-08 09:02N 50°29' E 000°53'211.4
2018-Aug-08 08:50N 50°28' E 000°49'3212.0
2018-Aug-08 06:08N 50°19' E 000°01'212.8
2018-Aug-08 06:00N 50°18' W 000°02'713.0
2018-Aug-08 05:28N 50°17' W 000°12'813.2
2018-Aug-08 04:50N 50°15' W 000°25'2713.1
2018-Aug-08 02:46N 50°07' W 001°06'412.5
2018-Aug-08 02:25N 50°06' W 001°12'512.0
2018-Aug-08 01:59N 50°05' W 001°20'611.6
2018-Aug-08 01:28N 50°03' W 001°29'53 9.6
2018-Aug-07 20:01N 49°50' W 002°48'011.8
2018-Aug-07 20:00N 49°50' W 002°48'810.4
2018-Aug-07 19:13N 49°46' W 002°60'310.8
2018-Aug-07 18:55N 49°45' W 003°04'511.1
2018-Aug-07 18:29N 49°42' W 003°11'611.0
2018-Aug-07 17:59N 49°40' W 003°18'6911.5
2018-Aug-07 12:00N 49°05' W 004°50'612.0
2018-Aug-07 11:30N 49°02' W 004°57'712.0
2018-Aug-07 10:56N 48°58' W 005°07'612.1
2018-Aug-07 10:24N 48°55' W 005°15'512.2
2018-Aug-07 09:58N 48°52' W 005°22'512.1
2018-Aug-07 09:30N 48°49' W 005°29'612.3
2018-Aug-07 09:00N 48°45' W 005°36'911.5
2018-Aug-07 08:16N 48°39' W 005°44'411.1
2018-Aug-07 07:57N 48°36' W 005°47'511.0
2018-Aug-07 07:30N 48°31' W 005°50'610.6
2018-Aug-07 06:54N 48°26' W 005°55'410.7
2018-Aug-07 06:30N 48°22' W 005°58'1510.5
2018-Aug-07 05:03N 48°08' W 006°08'010.2
2018-Aug-07 05:00N 48°08' W 006°09'510.3
2018-Aug-07 04:29N 48°03' W 006°12'510.2
2018-Aug-07 03:57N 47°58' W 006°16'910.1
2018-Aug-07 03:06N 47°51' W 006°22'310.0
2018-Aug-07 02:50N 47°48' W 006°24'33910.5
2018-Aug-05 18:40N 42°42' W 009°49'211.5
2018-Aug-05 18:30N 42°40' W 009°49'711.6
2018-Aug-05 17:52N 42°33' W 009°50'411.7
2018-Aug-05 17:30N 42°28' W 009°51'2111.7
2018-Aug-05 15:42N 42°07' W 009°55'9511.0
2018-Aug-05 07:01N 40°36' W 010°31'011.1
2018-Aug-05 07:01N 40°36' W 010°31'610.6
2018-Aug-05 06:24N 40°30' W 010°33'510.9
2018-Aug-05 05:57N 40°25' W 010°35'511.2
2018-Aug-05 05:28N 40°20' W 010°37'710.9
2018-Aug-05 04:52N 40°13' W 010°39'410.7
2018-Aug-05 04:31N 40°10' W 010°41'810.8
2018-Aug-05 03:48N 40°02' W 010°44'311.0
2018-Aug-05 03:30N 39°59' W 010°45'510.7
2018-Aug-05 03:00N 39°54' W 010°47'510.5
2018-Aug-05 02:30N 39°49' W 010°49'510.6
2018-Aug-05 02:00N 39°44' W 010°51'510.5
2018-Aug-05 01:30N 39°39' W 010°54'510.5
2018-Aug-05 01:01N 39°34' W 010°55'510.8
2018-Aug-05 00:31N 39°29' W 010°57'510.9
2018-Aug-05 00:00N 39°24' W 010°59'510.8
2018-Aug-04 23:30N 39°18' W 011°01'  

Dump ship's entire track history